sensor_id;sensor_type;location;lat;lon;timestamp;pressure;altitude;pressure_sealevel;temperature;humidity
56944;BME280;42848;42.524;12.052;2022-12-18T00:02:16;97359.91;;;10.02;100.00
56944;BME280;42848;42.524;12.052;2022-12-18T00:04:42;97361.22;;;10.05;100.00
56944;BME280;42848;42.524;12.052;2022-12-18T00:07:07;97365.53;;;10.19;100.00
56944;BME280;42848;42.524;12.052;2022-12-18T00:09:33;97360.81;;;9.97;100.00
56944;BME280;42848;42.524;12.052;2022-12-18T00:11:59;97366.06;;;10.08;100.00
56944;BME280;42848;42.524;12.052;2022-12-18T00:14:24;97361.00;;;10.15;100.00
56944;BME280;42848;42.524;12.052;2022-12-18T00:16:50;97372.59;;;10.07;100.00
56944;BME280;42848;42.524;12.052;2022-12-18T00:19:16;97366.06;;;10.08;100.00
56944;BME280;42848;42.524;12.052;2022-12-18T00:21:42;97369.84;;;9.93;100.00
56944;BME280;42848;42.524;12.052;2022-12-18T00:24:09;97376.69;;;9.90;100.00
56944;BME280;42848;42.524;12.052;2022-12-18T00:26:36;97379.31;;;10.09;100.00
56944;BME280;42848;42.524;12.052;2022-12-18T00:29:12;97373.28;;;9.98;100.00
56944;BME280;42848;42.524;12.052;2022-12-18T00:31:42;97381.50;;;9.80;100.00
56944;BME280;42848;42.524;12.052;2022-12-18T00:34:10;97385.69;;;9.72;100.00
56944;BME280;42848;42.524;12.052;2022-12-18T00:36:37;97389.81;;;9.83;100.00
56944;BME280;42848;42.524;12.052;2022-12-18T00:39:04;97393.38;;;9.97;100.00
56944;BME280;42848;42.524;12.052;2022-12-18T00:41:31;97400.25;;;9.76;100.00
56944;BME280;42848;42.524;12.052;2022-12-18T00:44:16;97402.03;;;9.67;100.00
56944;BME280;42848;42.524;12.052;2022-12-18T00:46:43;97410.81;;;9.59;100.00
56944;BME280;42848;42.524;12.052;2022-12-18T00:49:12;97418.13;;;9.45;100.00
56944;BME280;42848;42.524;12.052;2022-12-18T00:51:38;97420.53;;;9.46;100.00
56944;BME280;42848;42.524;12.052;2022-12-18T00:54:04;97422.69;;;9.95;100.00
56944;BME280;42848;42.524;12.052;2022-12-18T00:56:30;97420.88;;;10.05;100.00
56944;BME280;42848;42.524;12.052;2022-12-18T00:58:56;97428.25;;;9.72;100.00
56944;BME280;42848;42.524;12.052;2022-12-18T01:01:22;97431.28;;;9.70;100.00
56944;BME280;42848;42.524;12.052;2022-12-18T01:03:48;97431.34;;;9.65;100.00
56944;BME280;42848;42.524;12.052;2022-12-18T01:06:14;97437.44;;;9.57;100.00
56944;BME280;42848;42.524;12.052;2022-12-18T01:08:40;97439.19;;;9.48;100.00
56944;BME280;42848;42.524;12.052;2022-12-18T01:11:24;97437.81;;;9.50;100.00
56944;BME280;42848;42.524;12.052;2022-12-18T01:13:52;97441.94;;;9.80;100.00
56944;BME280;42848;42.524;12.052;2022-12-18T01:16:18;97449.72;;;9.68;100.00
56944;BME280;42848;42.524;12.052;2022-12-18T01:18:44;97441.75;;;9.58;100.00
56944;BME280;42848;42.524;12.052;2022-12-18T01:21:13;97452.09;;;9.56;100.00
56944;BME280;42848;42.524;12.052;2022-12-18T01:23:38;97447.69;;;9.60;100.00
56944;BME280;42848;42.524;12.052;2022-12-18T01:26:10;97450.50;;;9.68;100.00
56944;BME280;42848;42.524;12.052;2022-12-18T01:28:37;97454.59;;;9.85;100.00
56944;BME280;42848;42.524;12.052;2022-12-18T01:31:18;97453.88;;;9.79;100.00
56944;BME280;42848;42.524;12.052;2022-12-18T01:33:44;97464.03;;;9.55;100.00
56944;BME280;42848;42.524;12.052;2022-12-18T01:36:31;97463.91;;;9.46;100.00
56944;BME280;42848;42.524;12.052;2022-12-18T01:39:00;97471.41;;;9.68;100.00
56944;BME280;42848;42.524;12.052;2022-12-18T01:41:28;97469.13;;;9.75;100.00
56944;BME280;42848;42.524;12.052;2022-12-18T01:47:20;97485.38;;;9.43;100.00
56944;BME280;42848;42.524;12.052;2022-12-18T01:49:47;97487.53;;;9.40;100.00
56944;BME280;42848;42.524;12.052;2022-12-18T01:52:15;97495.44;;;9.56;100.00
56944;BME280;42848;42.524;12.052;2022-12-18T01:54:42;97491.34;;;9.58;100.00
56944;BME280;42848;42.524;12.052;2022-12-18T01:57:08;97488.88;;;9.62;100.00
56944;BME280;42848;42.524;12.052;2022-12-18T01:59:34;97491.63;;;9.57;100.00
56944;BME280;42848;42.524;12.052;2022-12-18T02:02:01;97496.63;;;9.50;100.00
56944;BME280;42848;42.524;12.052;2022-12-18T02:04:28;97500.28;;;9.59;100.00
56944;BME280;42848;42.524;12.052;2022-12-18T02:09:32;97508.94;;;9.61;100.00
56944;BME280;42848;42.524;12.052;2022-12-18T02:12:05;97510.16;;;9.68;100.00
56944;BME280;42848;42.524;12.052;2022-12-18T02:14:40;97505.44;;;9.93;100.00
56944;BME280;42848;42.524;12.052;2022-12-18T02:17:22;97504.03;;;9.63;100.00
56944;BME280;42848;42.524;12.052;2022-12-18T02:22:56;97512.66;;;9.84;100.00
56944;BME280;42848;42.524;12.052;2022-12-18T02:25:38;97515.00;;;9.72;100.00
56944;BME280;42848;42.524;12.052;2022-12-18T02:28:10;97508.63;;;9.81;100.00
56944;BME280;42848;42.524;12.052;2022-12-18T02:30:38;97521.22;;;9.91;100.00
56944;BME280;42848;42.524;12.052;2022-12-18T02:33:06;97523.63;;;9.92;100.00
56944;BME280;42848;42.524;12.052;2022-12-18T02:35:34;97516.66;;;9.86;100.00
56944;BME280;42848;42.524;12.052;2022-12-18T02:38:03;97519.91;;;9.88;100.00
56944;BME280;42848;42.524;12.052;2022-12-18T02:40:30;97524.81;;;9.67;100.00
56944;BME280;42848;42.524;12.052;2022-12-18T02:43:03;97525.53;;;9.92;100.00
56944;BME280;42848;42.524;12.052;2022-12-18T02:45:32;97520.03;;;9.78;100.00
56944;BME280;42848;42.524;12.052;2022-12-18T02:47:57;97529.72;;;9.84;100.00
56944;BME280;42848;42.524;12.052;2022-12-18T02:51:27;97529.94;;;9.88;100.00
56944;BME280;42848;42.524;12.052;2022-12-18T02:54:01;97526.50;;;9.82;100.00
56944;BME280;42848;42.524;12.052;2022-12-18T02:56:48;97525.47;;;9.78;100.00
56944;BME280;42848;42.524;12.052;2022-12-18T02:59:21;97525.19;;;9.80;100.00
56944;BME280;42848;42.524;12.052;2022-12-18T03:04:40;97525.78;;;9.58;100.00
56944;BME280;42848;42.524;12.052;2022-12-18T03:07:12;97532.38;;;9.52;100.00
56944;BME280;42848;42.524;12.052;2022-12-18T03:09:43;97528.28;;;9.54;100.00
56944;BME280;42848;42.524;12.052;2022-12-18T03:12:19;97528.94;;;9.46;100.00
56944;BME280;42848;42.524;12.052;2022-12-18T03:17:27;97525.94;;;9.48;100.00
56944;BME280;42848;42.524;12.052;2022-12-18T03:19:54;97522.56;;;9.56;100.00
56944;BME280;42848;42.524;12.052;2022-12-18T03:22:23;97526.38;;;9.55;100.00
56944;BME280;42848;42.524;12.052;2022-12-18T03:24:51;97523.44;;;9.51;100.00
56944;BME280;42848;42.524;12.052;2022-12-18T03:27:19;97516.53;;;9.40;100.00
56944;BME280;42848;42.524;12.052;2022-12-18T03:29:49;97524.38;;;9.41;100.00
56944;BME280;42848;42.524;12.052;2022-12-18T03:32:25;97526.22;;;9.27;100.00
56944;BME280;42848;42.524;12.052;2022-12-18T03:34:51;97537.63;;;9.24;100.00
56944;BME280;42848;42.524;12.052;2022-12-18T03:37:19;97539.47;;;9.29;100.00
56944;BME280;42848;42.524;12.052;2022-12-18T03:39:45;97527.31;;;9.26;100.00
56944;BME280;42848;42.524;12.052;2022-12-18T03:44:50;97524.31;;;9.47;100.00
56944;BME280;42848;42.524;12.052;2022-12-18T03:47:34;97541.31;;;9.33;100.00
56944;BME280;42848;42.524;12.052;2022-12-18T03:55:47;97538.06;;;9.50;100.00
56944;BME280;42848;42.524;12.052;2022-12-18T03:58:18;97535.75;;;9.44;100.00
56944;BME280;42848;42.524;12.052;2022-12-18T04:00:45;97542.38;;;9.32;100.00
56944;BME280;42848;42.524;12.052;2022-12-18T04:03:13;97549.88;;;9.40;100.00
56944;BME280;42848;42.524;12.052;2022-12-18T04:05:42;97549.94;;;9.35;100.00
56944;BME280;42848;42.524;12.052;2022-12-18T04:08:09;97554.47;;;9.21;100.00
56944;BME280;42848;42.524;12.052;2022-12-18T04:10:35;97558.59;;;9.37;100.00
56944;BME280;42848;42.524;12.052;2022-12-18T04:13:01;97560.34;;;9.28;100.00
56944;BME280;42848;42.524;12.052;2022-12-18T04:15:27;97566.22;;;9.11;100.00
56944;BME280;42848;42.524;12.052;2022-12-18T04:17:53;97563.63;;;9.25;100.00
56944;BME280;42848;42.524;12.052;2022-12-18T04:20:18;97577.53;;;9.19;100.00
56944;BME280;42848;42.524;12.052;2022-12-18T04:22:44;97573.38;;;9.26;100.00
56944;BME280;42848;42.524;12.052;2022-12-18T04:25:10;97572.63;;;9.21;100.00
56944;BME280;42848;42.524;12.052;2022-12-18T04:27:35;97579.94;;;9.20;100.00
56944;BME280;42848;42.524;12.052;2022-12-18T04:30:01;97580.66;;;9.07;100.00
56944;BME280;42848;42.524;12.052;2022-12-18T04:32:27;97587.69;;;9.08;100.00
56944;BME280;42848;42.524;12.052;2022-12-18T04:34:52;97600.94;;;9.09;100.00
56944;BME280;42848;42.524;12.052;2022-12-18T04:37:18;97590.66;;;9.30;100.00
56944;BME280;42848;42.524;12.052;2022-12-18T04:39:44;97593.09;;;9.08;100.00
56944;BME280;42848;42.524;12.052;2022-12-18T04:42:09;97592.00;;;9.09;100.00
56944;BME280;42848;42.524;12.052;2022-12-18T04:44:36;97588.47;;;9.08;100.00
56944;BME280;42848;42.524;12.052;2022-12-18T04:47:02;97598.66;;;8.93;100.00
56944;BME280;42848;42.524;12.052;2022-12-18T04:49:27;97596.44;;;9.00;100.00
56944;BME280;42848;42.524;12.052;2022-12-18T04:51:53;97596.88;;;8.83;100.00
56944;BME280;42848;42.524;12.052;2022-12-18T04:54:19;97606.81;;;9.17;100.00
56944;BME280;42848;42.524;12.052;2022-12-18T04:56:45;97622.22;;;8.92;100.00
56944;BME280;42848;42.524;12.052;2022-12-18T04:59:10;97619.34;;;8.83;100.00
56944;BME280;42848;42.524;12.052;2022-12-18T05:01:36;97621.44;;;8.92;100.00
56944;BME280;42848;42.524;12.052;2022-12-18T05:04:02;97621.56;;;8.76;100.00
56944;BME280;42848;42.524;12.052;2022-12-18T05:06:28;97624.84;;;8.73;100.00
56944;BME280;42848;42.524;12.052;2022-12-18T05:08:54;97636.50;;;8.74;100.00
56944;BME280;42848;42.524;12.052;2022-12-18T05:11:20;97642.13;;;8.77;100.00
56944;BME280;42848;42.524;12.052;2022-12-18T05:13:46;97640.88;;;8.70;100.00
56944;BME280;42848;42.524;12.052;2022-12-18T05:16:12;97641.22;;;8.58;100.00
56944;BME280;42848;42.524;12.052;2022-12-18T05:18:38;97644.19;;;8.62;100.00
56944;BME280;42848;42.524;12.052;2022-12-18T05:21:04;97643.28;;;8.71;100.00
56944;BME280;42848;42.524;12.052;2022-12-18T05:23:30;97650.91;;;8.69;100.00
56944;BME280;42848;42.524;12.052;2022-12-18T05:26:01;97656.81;;;8.71;100.00
56944;BME280;42848;42.524;12.052;2022-12-18T05:28:29;97657.66;;;8.67;100.00
56944;BME280;42848;42.524;12.052;2022-12-18T05:30:58;97661.16;;;8.72;100.00
56944;BME280;42848;42.524;12.052;2022-12-18T05:33:25;97665.50;;;8.68;100.00
56944;BME280;42848;42.524;12.052;2022-12-18T05:35:52;97671.81;;;8.59;100.00
56944;BME280;42848;42.524;12.052;2022-12-18T05:38:19;97673.16;;;8.61;100.00
56944;BME280;42848;42.524;12.052;2022-12-18T05:40:46;97675.28;;;8.64;100.00
56944;BME280;42848;42.524;12.052;2022-12-18T05:43:12;97685.88;;;8.61;100.00
56944;BME280;42848;42.524;12.052;2022-12-18T05:45:38;97683.44;;;8.59;100.00
56944;BME280;42848;42.524;12.052;2022-12-18T05:48:04;97687.28;;;8.53;100.00
56944;BME280;42848;42.524;12.052;2022-12-18T05:50:30;97689.34;;;8.66;100.00
56944;BME280;42848;42.524;12.052;2022-12-18T05:52:58;97697.03;;;8.54;100.00
56944;BME280;42848;42.524;12.052;2022-12-18T05:55:24;97688.38;;;8.52;100.00
56944;BME280;42848;42.524;12.052;2022-12-18T05:57:51;97697.59;;;8.51;100.00
56944;BME280;42848;42.524;12.052;2022-12-18T06:00:17;97698.72;;;8.45;100.00
56944;BME280;42848;42.524;12.052;2022-12-18T06:02:46;97701.44;;;8.45;100.00
56944;BME280;42848;42.524;12.052;2022-12-18T06:05:12;97704.38;;;8.48;100.00
56944;BME280;42848;42.524;12.052;2022-12-18T06:07:38;97709.97;;;8.62;100.00
56944;BME280;42848;42.524;12.052;2022-12-18T06:10:04;97706.75;;;8.55;100.00
56944;BME280;42848;42.524;12.052;2022-12-18T06:12:30;97705.66;;;8.56;100.00
56944;BME280;42848;42.524;12.052;2022-12-18T06:14:55;97702.75;;;8.47;100.00
56944;BME280;42848;42.524;12.052;2022-12-18T06:17:21;97705.16;;;8.54;100.00
56944;BME280;42848;42.524;12.052;2022-12-18T06:19:47;97709.50;;;8.50;100.00
56944;BME280;42848;42.524;12.052;2022-12-18T06:22:12;97705.16;;;8.49;100.00
56944;BME280;42848;42.524;12.052;2022-12-18T06:24:38;97708.81;;;8.68;100.00
56944;BME280;42848;42.524;12.052;2022-12-18T06:27:03;97712.69;;;8.57;100.00
56944;BME280;42848;42.524;12.052;2022-12-18T06:29:29;97723.59;;;8.47;100.00
56944;BME280;42848;42.524;12.052;2022-12-18T06:31:55;97728.78;;;8.43;100.00
56944;BME280;42848;42.524;12.052;2022-12-18T06:34:20;97732.31;;;8.34;100.00
56944;BME280;42848;42.524;12.052;2022-12-18T06:36:46;97727.47;;;8.36;100.00
56944;BME280;42848;42.524;12.052;2022-12-18T06:39:12;97735.31;;;8.32;100.00
56944;BME280;42848;42.524;12.052;2022-12-18T06:41:37;97737.22;;;8.26;100.00
56944;BME280;42848;42.524;12.052;2022-12-18T06:44:03;97740.50;;;8.23;100.00
56944;BME280;42848;42.524;12.052;2022-12-18T06:46:29;97734.59;;;8.16;100.00
56944;BME280;42848;42.524;12.052;2022-12-18T06:48:54;97745.13;;;8.18;100.00
56944;BME280;42848;42.524;12.052;2022-12-18T06:51:21;97747.47;;;8.30;100.00
56944;BME280;42848;42.524;12.052;2022-12-18T06:53:47;97751.31;;;8.23;100.00
56944;BME280;42848;42.524;12.052;2022-12-18T06:56:13;97747.81;;;8.18;100.00
56944;BME280;42848;42.524;12.052;2022-12-18T06:58:40;97745.34;;;8.26;100.00
56944;BME280;42848;42.524;12.052;2022-12-18T07:01:08;97747.53;;;8.24;100.00
56944;BME280;42848;42.524;12.052;2022-12-18T07:03:34;97752.38;;;8.27;100.00
56944;BME280;42848;42.524;12.052;2022-12-18T07:06:01;97758.59;;;8.28;100.00
56944;BME280;42848;42.524;12.052;2022-12-18T07:08:28;97759.94;;;8.36;100.00
56944;BME280;42848;42.524;12.052;2022-12-18T07:10:54;97760.44;;;8.38;100.00
56944;BME280;42848;42.524;12.052;2022-12-18T07:13:20;97769.13;;;8.35;100.00
56944;BME280;42848;42.524;12.052;2022-12-18T07:15:45;97781.00;;;8.34;100.00
56944;BME280;42848;42.524;12.052;2022-12-18T07:18:11;97779.41;;;8.33;100.00
56944;BME280;42848;42.524;12.052;2022-12-18T07:20:36;97774.53;;;8.35;100.00
56944;BME280;42848;42.524;12.052;2022-12-18T07:23:03;97782.13;;;8.27;100.00
56944;BME280;42848;42.524;12.052;2022-12-18T07:25:34;97788.03;;;8.40;100.00
56944;BME280;42848;42.524;12.052;2022-12-18T07:28:00;97785.31;;;8.45;100.00
56944;BME280;42848;42.524;12.052;2022-12-18T07:30:26;97793.44;;;8.40;100.00
56944;BME280;42848;42.524;12.052;2022-12-18T07:32:51;97790.19;;;8.43;100.00
56944;BME280;42848;42.524;12.052;2022-12-18T07:35:17;97792.09;;;8.42;100.00
56944;BME280;42848;42.524;12.052;2022-12-18T07:37:42;97797.75;;;8.46;100.00
56944;BME280;42848;42.524;12.052;2022-12-18T07:40:09;97797.16;;;8.54;100.00
56944;BME280;42848;42.524;12.052;2022-12-18T07:42:34;97800.38;;;8.61;100.00
56944;BME280;42848;42.524;12.052;2022-12-18T07:45:01;97811.13;;;8.71;100.00
56944;BME280;42848;42.524;12.052;2022-12-18T07:47:28;97808.97;;;8.68;100.00
56944;BME280;42848;42.524;12.052;2022-12-18T07:49:54;97809.78;;;8.69;100.00
56944;BME280;42848;42.524;12.052;2022-12-18T07:52:20;97820.56;;;8.74;100.00
56944;BME280;42848;42.524;12.052;2022-12-18T07:54:46;97822.97;;;8.80;100.00
56944;BME280;42848;42.524;12.052;2022-12-18T07:57:14;97815.66;;;8.81;100.00
56944;BME280;42848;42.524;12.052;2022-12-18T07:59:40;97825.38;;;8.87;100.00
56944;BME280;42848;42.524;12.052;2022-12-18T08:02:06;97832.13;;;8.90;100.00
56944;BME280;42848;42.524;12.052;2022-12-18T08:04:31;97840.75;;;8.97;100.00
56944;BME280;42848;42.524;12.052;2022-12-18T08:06:57;97832.84;;;9.00;100.00
56944;BME280;42848;42.524;12.052;2022-12-18T08:09:23;97830.38;;;9.04;100.00
56944;BME280;42848;42.524;12.052;2022-12-18T08:11:48;97841.78;;;9.01;100.00
56944;BME280;42848;42.524;12.052;2022-12-18T08:14:14;97842.56;;;9.06;100.00
56944;BME280;42848;42.524;12.052;2022-12-18T08:16:40;97850.91;;;9.10;100.00
56944;BME280;42848;42.524;12.052;2022-12-18T08:19:05;97847.69;;;9.08;100.00
56944;BME280;42848;42.524;12.052;2022-12-18T08:21:31;97851.41;;;9.17;100.00
56944;BME280;42848;42.524;12.052;2022-12-18T08:23:59;97857.38;;;9.14;100.00
56944;BME280;42848;42.524;12.052;2022-12-18T08:26:27;97861.09;;;9.23;100.00
56944;BME280;42848;42.524;12.052;2022-12-18T08:28:55;97862.97;;;9.28;100.00
56944;BME280;42848;42.524;12.052;2022-12-18T08:31:22;97860.03;;;9.24;100.00
56944;BME280;42848;42.524;12.052;2022-12-18T08:33:49;97862.09;;;9.32;100.00
56944;BME280;42848;42.524;12.052;2022-12-18T08:36:15;97868.03;;;9.39;100.00
56944;BME280;42848;42.524;12.052;2022-12-18T08:38:41;97873.97;;;9.41;100.00
56944;BME280;42848;42.524;12.052;2022-12-18T08:41:09;97880.75;;;9.39;100.00
56944;BME280;42848;42.524;12.052;2022-12-18T08:43:36;97883.69;;;9.48;100.00
56944;BME280;42848;42.524;12.052;2022-12-18T08:46:20;97883.69;;;9.48;100.00
56944;BME280;42848;42.524;12.052;2022-12-18T08:48:47;97885.28;;;9.49;100.00
56944;BME280;42848;42.524;12.052;2022-12-18T08:51:16;97893.13;;;9.50;100.00
56944;BME280;42848;42.524;12.052;2022-12-18T08:53:42;97892.81;;;9.57;100.00
56944;BME280;42848;42.524;12.052;2022-12-18T08:56:08;97897.34;;;9.66;100.00
56944;BME280;42848;42.524;12.052;2022-12-18T08:58:34;97899.50;;;9.69;100.00
56944;BME280;42848;42.524;12.052;2022-12-18T09:01:04;97910.59;;;9.68;100.00
56944;BME280;42848;42.524;12.052;2022-12-18T09:03:30;97915.38;;;9.81;100.00
56944;BME280;42848;42.524;12.052;2022-12-18T09:05:56;97918.00;;;9.91;100.00
56944;BME280;42848;42.524;12.052;2022-12-18T09:08:21;97918.09;;;9.81;100.00
56944;BME280;42848;42.524;12.052;2022-12-18T09:10:49;97915.88;;;9.88;100.00
56944;BME280;42848;42.524;12.052;2022-12-18T09:13:15;97922.91;;;9.89;100.00
56944;BME280;42848;42.524;12.052;2022-12-18T09:15:43;97918.03;;;9.86;100.00
56944;BME280;42848;42.524;12.052;2022-12-18T09:18:11;97928.88;;;9.86;100.00
56944;BME280;42848;42.524;12.052;2022-12-18T09:20:37;97930.75;;;9.91;100.00
56944;BME280;42848;42.524;12.052;2022-12-18T09:23:04;97931.66;;;9.81;100.00
56944;BME280;42848;42.524;12.052;2022-12-18T09:25:31;97928.31;;;9.89;100.00
56944;BME280;42848;42.524;12.052;2022-12-18T09:27:59;97934.78;;;9.93;100.00
56944;BME280;42848;42.524;12.052;2022-12-18T09:30:26;97934.78;;;9.93;100.00
56944;BME280;42848;42.524;12.052;2022-12-18T09:32:51;97932.03;;;9.98;100.00
56944;BME280;42848;42.524;12.052;2022-12-18T09:35:17;97934.69;;;10.04;100.00
56944;BME280;42848;42.524;12.052;2022-12-18T09:37:43;97938.47;;;10.08;100.00
56944;BME280;42848;42.524;12.052;2022-12-18T09:40:18;97937.59;;;10.12;100.00
56944;BME280;42848;42.524;12.052;2022-12-18T09:42:48;97936.44;;;10.18;100.00
56944;BME280;42848;42.524;12.052;2022-12-18T09:45:17;97937.25;;;10.19;100.00
56944;BME280;42848;42.524;12.052;2022-12-18T09:47:45;97937.25;;;10.19;100.00
56944;BME280;42848;42.524;12.052;2022-12-18T09:50:34;97932.88;;;10.23;100.00
56944;BME280;42848;42.524;12.052;2022-12-18T09:53:06;97939.25;;;10.37;100.00
56944;BME280;42848;42.524;12.052;2022-12-18T09:55:41;97932.56;;;10.30;100.00
56944;BME280;42848;42.524;12.052;2022-12-18T10:00:35;97932.44;;;10.40;100.00
56944;BME280;42848;42.524;12.052;2022-12-18T10:03:09;97931.16;;;10.32;100.00
56944;BME280;42848;42.524;12.052;2022-12-18T10:05:56;97930.00;;;10.38;100.00
56944;BME280;42848;42.524;12.052;2022-12-18T10:14:10;97922.22;;;10.56;100.00
56944;BME280;42848;42.524;12.052;2022-12-18T10:17:07;97926.41;;;10.67;100.00
56944;BME280;42848;42.524;12.052;2022-12-18T10:19:50;97920.31;;;10.56;100.00
56944;BME280;42848;42.524;12.052;2022-12-18T10:27:22;97932.78;;;10.57;100.00
56944;BME280;42848;42.524;12.052;2022-12-18T10:29:48;97930.19;;;10.71;100.00
56944;BME280;42848;42.524;12.052;2022-12-18T10:32:17;97934.72;;;10.75;100.00
56944;BME280;42848;42.524;12.052;2022-12-18T10:34:48;97930.09;;;10.76;100.00
56944;BME280;42848;42.524;12.052;2022-12-18T10:37:19;97928.13;;;10.81;100.00
56944;BME280;42848;42.524;12.052;2022-12-18T10:39:47;97926.22;;;10.82;100.00
56944;BME280;42848;42.524;12.052;2022-12-18T10:42:29;97928.00;;;10.92;100.00
56944;BME280;42848;42.524;12.052;2022-12-18T10:45:13;97928.34;;;10.85;100.00
56944;BME280;42848;42.524;12.052;2022-12-18T10:47:45;97923.72;;;10.86;100.00
56944;BME280;42848;42.524;12.052;2022-12-18T10:50:28;97928.59;;;10.89;100.00
56944;BME280;42848;42.524;12.052;2022-12-18T10:52:59;97928.00;;;10.92;100.00
56944;BME280;42848;42.524;12.052;2022-12-18T10:55:37;97925.44;;;11.00;100.00
56944;BME280;42848;42.524;12.052;2022-12-18T10:58:28;97924.22;;;10.88;100.00
56944;BME280;42848;42.524;12.052;2022-12-18T11:01:15;97921.75;;;10.91;100.00
56944;BME280;42848;42.524;12.052;2022-12-18T11:03:47;97922.78;;;10.95;100.00
56944;BME280;42848;42.524;12.052;2022-12-18T11:06:24;97919.50;;;10.98;100.00
56944;BME280;42848;42.524;12.052;2022-12-18T11:09:02;97923.16;;;10.89;100.00
56944;BME280;42848;42.524;12.052;2022-12-18T11:11:29;97922.28;;;10.93;100.00
56944;BME280;42848;42.524;12.052;2022-12-18T11:16:28;97925.94;;;11.02;100.00
56944;BME280;42848;42.524;12.052;2022-12-18T11:19:21;97916.25;;;10.96;100.00
56944;BME280;42848;42.524;12.052;2022-12-18T11:21:48;97924.84;;;11.03;100.00
56944;BME280;42848;42.524;12.052;2022-12-18T11:24:34;97921.09;;;10.99;100.00
56944;BME280;42848;42.524;12.052;2022-12-18T11:27:02;97910.09;;;11.09;100.00
56944;BME280;42848;42.524;12.052;2022-12-18T11:29:37;97913.63;;;11.10;100.00
56944;BME280;42848;42.524;12.052;2022-12-18T11:34:51;97913.75;;;11.00;100.00
56944;BME280;42848;42.524;12.052;2022-12-18T11:37:21;97904.41;;;11.06;100.00
56944;BME280;42848;42.524;12.052;2022-12-18T11:39:53;97905.16;;;11.11;100.00
56944;BME280;42848;42.524;12.052;2022-12-18T11:42:53;97890.41;;;11.18;100.00
56944;BME280;42848;42.524;12.052;2022-12-18T11:45:31;97890.91;;;11.20;100.00
56944;BME280;42848;42.524;12.052;2022-12-18T11:48:11;97898.56;;;11.18;100.00
56944;BME280;42848;42.524;12.052;2022-12-18T11:50:52;97885.84;;;11.13;100.00
56944;BME280;42848;42.524;12.052;2022-12-18T11:53:19;97889.47;;;11.08;100.00
56944;BME280;42848;42.524;12.052;2022-12-18T12:15:06;97895.03;;;11.36;100.00
56944;BME280;42848;42.524;12.052;2022-12-18T12:17:55;97890.75;;;11.30;100.00
56944;BME280;42848;42.524;12.052;2022-12-18T12:23:34;97888.53;;;11.32;100.00
56944;BME280;42848;42.524;12.052;2022-12-18T12:26:07;97895.03;;;11.36;100.00
56944;BME280;42848;42.524;12.052;2022-12-18T12:31:51;97887.56;;;11.42;100.00
56944;BME280;42848;42.524;12.052;2022-12-18T12:34:26;97894.06;;;11.46;100.00
56944;BME280;42848;42.524;12.052;2022-12-18T12:40:05;97893.81;;;11.42;100.00
56944;BME280;42848;42.524;12.052;2022-12-18T12:42:38;97893.25;;;11.45;100.00
56944;BME280;42848;42.524;12.052;2022-12-18T12:45:33;97902.72;;;11.48;100.00
56944;BME280;42848;42.524;12.052;2022-12-18T12:48:02;97888.78;;;11.35;100.00
56944;BME280;42848;42.524;12.052;2022-12-18T12:50:30;97896.84;;;11.40;100.00
56944;BME280;42848;42.524;12.052;2022-12-18T12:53:01;97887.38;;;11.38;100.00
56944;BME280;42848;42.524;12.052;2022-12-18T12:55:30;97891.63;;;11.44;100.00
56944;BME280;42848;42.524;12.052;2022-12-18T13:00:39;97892.63;;;11.48;100.00
56944;BME280;42848;42.524;12.052;2022-12-18T13:06:02;97897.91;;;11.58;100.00
56944;BME280;42848;42.524;12.052;2022-12-18T13:08:58;97894.50;;;11.53;100.00
56944;BME280;42848;42.524;12.052;2022-12-18T13:11:34;97890.84;;;11.57;100.00
56944;BME280;42848;42.524;12.052;2022-12-18T13:14:22;97901.53;;;11.54;100.00
56944;BME280;42848;42.524;12.052;2022-12-18T13:16:48;97895.28;;;11.53;100.00
56944;BME280;42848;42.524;12.052;2022-12-18T13:19:23;97896.28;;;11.57;100.00
56944;BME280;42848;42.524;12.052;2022-12-18T13:21:55;97906.16;;;11.53;100.00
56944;BME280;42848;42.524;12.052;2022-12-18T13:24:27;97909.81;;;11.62;100.00
56944;BME280;42848;42.524;12.052;2022-12-18T13:26:55;97909.22;;;11.65;100.00
56944;BME280;42848;42.524;12.052;2022-12-18T13:29:41;97916.06;;;11.63;100.00
56944;BME280;42848;42.524;12.052;2022-12-18T13:32:20;97922.88;;;11.60;100.00
56944;BME280;42848;42.524;12.052;2022-12-18T13:34:46;97908.72;;;11.63;100.00
56944;BME280;42848;42.524;12.052;2022-12-18T13:37:42;97916.88;;;11.63;100.00
56944;BME280;42848;42.524;12.052;2022-12-18T13:43:22;97934.00;;;11.64;100.00
56944;BME280;42848;42.524;12.052;2022-12-18T13:46:50;97933.03;;;11.74;100.00
56944;BME280;42848;42.524;12.052;2022-12-18T13:51:50;97935.81;;;11.68;100.00
56944;BME280;42848;42.524;12.052;2022-12-18T13:54:39;97938.84;;;11.67;100.00
56944;BME280;42848;42.524;12.052;2022-12-18T13:57:28;97935.25;;;11.72;100.00
56944;BME280;42848;42.524;12.052;2022-12-18T13:59:55;97935.13;;;11.77;100.00
56944;BME280;42848;42.524;12.052;2022-12-18T14:02:26;97933.63;;;11.71;100.00
56944;BME280;42848;42.524;12.052;2022-12-18T14:04:53;97936.84;;;11.73;100.00
56944;BME280;42848;42.524;12.052;2022-12-18T14:07:22;97940.03;;;11.80;100.00
56944;BME280;42848;42.524;12.052;2022-12-18T14:09:51;97941.09;;;11.79;100.00
56944;BME280;42848;42.524;12.052;2022-12-18T14:12:26;97943.81;;;11.79;100.00
56944;BME280;42848;42.524;12.052;2022-12-18T14:18:09;97942.75;;;11.80;100.00
56944;BME280;42848;42.524;12.052;2022-12-18T14:20:44;97948.75;;;11.77;100.00
56944;BME280;42848;42.524;12.052;2022-12-18T14:23:33;97949.81;;;11.81;100.00
56944;BME280;42848;42.524;12.052;2022-12-18T14:26:02;97953.22;;;11.86;100.00
56944;BME280;42848;42.524;12.052;2022-12-18T14:28:28;97952.88;;;11.74;100.00